メインページ
METAR-TAF:

METAR-TAF

空港 :

Earlton, オンタリオ州, カナダ

緯度: 47-42N, 経度: 079-51W, 海抜: 243m

現時点の気象観測

当レポートは1時間14分前の22:00(UTC)に作成
北西の風 7kt
気温 -11°C
湿度 56%
気圧 1015 hPa
視程: 14.5km
高度3700ftの曇り

METAR: CYXR 162200Z AUTO 31007KT 9SM OVC037 M11/M18 A2998 RMK SLP172

時間: 18:14 (23:14 UTC)

予報

当レポートは5時間35分前の17:39(UTC)に作成
予報は16日の 18時(UTC)から 17日の 01時(UTC)まで有効
北西の風 12kt
視程: 10km
高度2500ftの雲は散在している
高度4000ftの曇り

TAF: CYXR 161739Z 1618/1701 32012KT P6SM SCT025 OVC040 RMK FCST BASED ON AUTO OBS. NXT FCST WILL BE ISSUED AT 171245Z

4,000以上の空港の気象観測と天気予報(METAR報とTAF報)

利用可能な観測所は地図上に黄色い丸と赤い丸で示す。

丸の上にカーソルを重ねると観測所名を参照できる。

次にクリックすると気象観測と天気予報を参照できる。

マップの切り替え:黒色「×」印の緑ボタンをクリックして拡大、「-」印の緑ボタンをクリックして縮小、緑色の三角印をクリックして隣りの地図に切り替え


METAR-TAF: